Guaraniacu, Brazil
Current Conditions -  °F | °C
As of 1:00 PM on Saturday 25 Oct 2014 (Local Time) from SBCA Reporting Station
Scattered Clouds Scattered Clouds  
Wind Chill: 81°   Ceiling: Unl
Heat Index: 83°   Visibility: 6mi
Dew Point: 68°   Wind: 20mph
Humidity: 65%   Direction: 60°ENE
Pressure: 30.03"   Gusts: NA
Location:  25.1°S, 52.88°W
Report Text: SBCA 251500Z 06017KT 9999 SCT020 27/20 Q1017
Loading
Personal Weather Stations






























Interactive Weather Map
Tropical Storm Tracking
New forecast layout! Learn more

10-Day Weather Forecast

Advertisements
Track Severe Weather on mobile